createdAt,value
2018-04-26T13:24:01.000Z,355
2018-04-26T13:24:13.586Z,350
2018-04-26T13:24:26.230Z,350
2018-04-26T13:24:38.846Z,350
2018-04-26T13:24:51.433Z,355
2018-04-26T13:25:04.094Z,365
2018-04-26T13:25:16.710Z,375
2018-04-26T13:25:29.293Z,385
2018-04-26T13:25:41.909Z,385
2018-04-26T13:25:54.523Z,375
2018-04-26T13:26:07.190Z,355
2018-04-26T13:26:19.778Z,330
2018-04-26T13:26:32.418Z,305
2018-04-26T13:26:45.032Z,275
2018-04-26T13:26:57.630Z,245
2018-04-26T13:27:10.267Z,220
2018-04-26T13:27:22.826Z,200
2018-04-26T13:27:35.400Z,180
2018-04-26T13:27:47.996Z,165
2018-04-26T13:28:00.610Z,150
2018-04-26T13:28:13.252Z,140
2018-04-26T13:28:25.844Z,135
2018-04-26T13:28:38.455Z,130
2018-04-26T13:28:51.048Z,125
2018-04-26T13:29:03.639Z,120
2018-04-26T13:29:16.258Z,120
2018-04-26T13:29:28.869Z,120
2018-04-26T13:29:41.461Z,120
2018-04-26T13:29:54.134Z,125
2018-04-26T13:30:06.650Z,125
2018-04-26T13:30:19.249Z,125
2018-04-26T13:30:31.840Z,125
2018-04-26T13:30:44.462Z,130
2018-04-26T13:30:57.053Z,130
2018-04-26T13:31:09.654Z,130
2018-04-26T13:31:22.245Z,130
2018-04-26T13:31:34.857Z,130
2018-04-26T13:31:47.447Z,125
2018-04-26T13:32:00.169Z,125
2018-04-26T13:32:12.685Z,125
2018-04-26T13:32:25.302Z,130
2018-04-26T13:32:37.922Z,130
2018-04-26T13:32:50.535Z,125
2018-04-26T13:33:03.132Z,135
2018-04-26T13:33:15.752Z,140
2018-04-26T13:33:28.339Z,140
2018-04-26T13:33:40.932Z,145
2018-04-26T13:33:53.519Z,145
2018-04-26T13:34:06.120Z,155
2018-04-26T13:34:18.708Z,160
2018-04-26T13:34:31.297Z,170
2018-04-26T13:34:43.889Z,185
2018-04-26T13:34:56.507Z,200
2018-04-26T13:35:09.170Z,210
2018-04-26T13:35:21.769Z,230
2018-04-26T13:35:34.623Z,250
2018-04-26T13:35:47.185Z,275
2018-04-26T13:35:59.793Z,290
2018-04-26T13:36:12.394Z,310
2018-04-26T13:36:25.064Z,330
2018-04-26T13:36:37.597Z,345
2018-04-26T13:36:50.194Z,365
2018-04-26T13:37:02.806Z,370
2018-04-26T13:37:15.398Z,375
2018-04-26T13:37:27.990Z,385
2018-04-26T13:37:40.603Z,390
2018-04-26T13:37:53.200Z,400
2018-04-26T13:38:05.815Z,405
2018-04-26T13:38:18.409Z,400
2018-04-26T13:38:30.996Z,400
2018-04-26T13:38:43.582Z,400
2018-04-26T13:38:56.242Z,405
2018-04-26T13:39:08.859Z,405
2018-04-26T13:39:21.454Z,400
2018-04-26T13:39:34.047Z,395
2018-04-26T13:39:46.743Z,390
2018-04-26T13:39:59.254Z,380
2018-04-26T13:40:11.868Z,375
2018-04-26T13:40:24.462Z,370
2018-04-26T13:40:37.059Z,360
2018-04-26T13:40:49.703Z,355
2018-04-26T13:41:02.368Z,345
2018-04-26T13:41:14.990Z,335
2018-04-26T13:41:27.573Z,330
2018-04-26T13:41:40.166Z,320
2018-04-26T13:41:52.759Z,315
2018-04-26T13:42:05.362Z,310
2018-04-26T13:42:17.974Z,310
2018-04-26T13:42:30.588Z,310
2018-04-26T13:42:43.203Z,310
2018-04-26T13:42:55.796Z,305
2018-04-26T13:43:08.392Z,310
2018-04-26T13:43:20.983Z,310
2018-04-26T13:43:33.578Z,310
2018-04-26T13:43:46.167Z,310
2018-04-26T13:43:58.758Z,310
2018-04-26T13:44:11.356Z,310
2018-04-26T13:44:23.984Z,310
2018-04-26T13:44:36.579Z,305
2018-04-26T13:44:49.170Z,305
2018-04-26T13:45:01.786Z,305
2018-04-26T13:45:14.399Z,300
2018-04-26T13:45:26.992Z,300
2018-04-26T13:45:39.588Z,300
2018-04-26T13:45:52.182Z,300
2018-04-26T13:46:04.861Z,300
2018-04-26T13:46:17.480Z,295
2018-04-26T13:46:29.993Z,295
2018-04-26T13:46:42.606Z,290
2018-04-26T13:46:55.196Z,290
2018-04-26T13:47:07.788Z,285
2018-04-26T13:47:20.383Z,285
2018-04-26T13:47:32.976Z,280
2018-04-26T13:47:45.571Z,280
2018-04-26T13:47:58.225Z,280
2018-04-26T13:48:10.772Z,275
2018-04-26T13:48:23.370Z,270
2018-04-26T13:48:36.020Z,270
2018-04-26T13:48:48.577Z,265
2018-04-26T13:49:01.170Z,260
2018-04-26T13:49:13.762Z,255
2018-04-26T13:49:26.380Z,255
2018-04-26T13:49:38.963Z,255
2018-04-26T13:49:51.567Z,255
2018-04-26T13:50:04.133Z,245
2018-04-26T13:50:16.750Z,245
2018-04-26T13:50:29.368Z,240
2018-04-26T13:50:41.959Z,240
2018-04-26T13:50:54.553Z,240
2018-04-26T13:51:07.219Z,235
2018-04-26T13:51:19.833Z,235
2018-04-26T13:51:32.430Z,235
2018-04-26T13:51:45.021Z,235
2018-04-26T13:51:57.708Z,230
2018-04-26T13:52:10.210Z,230
2018-04-26T13:52:22.807Z,230
2018-04-26T13:52:35.423Z,230
2018-04-26T13:52:48.065Z,230
2018-04-26T13:53:00.657Z,230
2018-04-26T13:53:13.252Z,230
2018-04-26T13:53:25.849Z,230
2018-04-26T13:53:38.435Z,230
2018-04-26T13:53:51.028Z,230
2018-04-26T13:54:03.631Z,230
2018-04-26T13:54:16.214Z,230
2018-04-26T13:54:28.812Z,230
2018-04-26T13:54:41.399Z,230
2018-04-26T13:54:53.995Z,230
2018-04-26T13:55:06.606Z,230
2018-04-26T13:55:19.195Z,230
2018-04-26T13:55:31.792Z,230
2018-04-26T13:55:44.380Z,230
2018-04-26T13:58:32.978Z,230
2018-04-26T13:58:45.592Z,230
2018-04-26T13:58:58.187Z,230
2018-04-26T13:59:10.778Z,230
2018-04-26T13:59:23.377Z,230
2018-04-26T13:59:35.990Z,230
2018-04-26T13:59:48.578Z,235
2018-04-26T14:00:01.183Z,235
2018-04-26T14:00:13.759Z,235
2018-04-26T14:00:26.357Z,235
2018-04-26T14:00:38.954Z,235
2018-04-26T14:00:51.538Z,245
2018-04-26T14:01:04.159Z,240
2018-04-26T14:01:16.779Z,240
2018-04-26T14:01:29.396Z,240
2018-04-26T14:01:42.000Z,240
2018-04-26T14:01:54.677Z,240
2018-04-26T14:02:07.312Z,235
2018-04-26T14:02:19.904Z,240
2018-04-26T14:02:32.493Z,240
2018-04-26T14:02:45.089Z,240
2018-04-26T14:02:57.681Z,240
2018-04-26T14:03:10.342Z,240
2018-04-26T14:03:22.940Z,240
2018-04-26T14:03:35.557Z,235
2018-04-26T14:03:48.176Z,235
2018-04-26T14:04:00.776Z,240
2018-04-26T14:04:13.387Z,240
2018-04-26T14:04:26.005Z,240
2018-04-26T14:04:38.594Z,240
2018-04-26T14:04:51.185Z,245
2018-04-26T14:05:03.868Z,245
2018-04-26T14:05:16.503Z,250
2018-04-26T14:05:29.118Z,250
2018-04-26T14:05:41.709Z,255
2018-04-26T14:05:54.328Z,255
2018-04-26T14:06:06.933Z,260
2018-04-26T14:06:19.528Z,265
2018-04-26T14:06:32.117Z,265
2018-04-26T14:06:44.718Z,270
2018-04-26T14:06:57.351Z,275
2018-04-26T14:07:09.946Z,280
2018-04-26T14:07:22.544Z,285
2018-04-26T14:07:35.158Z,285
2018-04-26T14:07:47.780Z,290
2018-04-26T14:08:00.369Z,295
2018-04-26T14:08:12.988Z,295
2018-04-26T14:08:25.574Z,300
2018-04-26T14:08:38.173Z,305
2018-04-26T14:08:50.759Z,310
2018-04-26T14:09:03.356Z,315
2018-04-26T14:09:15.972Z,320
2018-04-26T14:09:28.589Z,330
2018-04-26T14:09:41.200Z,340
2018-04-26T14:09:53.794Z,345
2018-04-26T14:10:06.384Z,355
2018-04-26T14:10:19.013Z,360
2018-04-26T14:10:31.634Z,360
2018-04-26T14:10:44.182Z,370
2018-04-26T14:10:56.824Z,375
2018-04-26T14:11:09.465Z,390
2018-04-26T14:11:22.162Z,400
2018-04-26T14:11:34.757Z,405
2018-04-26T14:11:47.373Z,415
2018-04-26T14:11:59.966Z,425
2018-04-26T14:12:12.633Z,430
2018-04-26T14:12:25.176Z,440
2018-04-26T14:12:37.791Z,440
2018-04-26T14:12:50.385Z,440
2018-04-26T14:13:02.989Z,440
2018-04-26T14:13:15.578Z,440
2018-04-26T14:13:28.166Z,430
2018-04-26T14:13:40.764Z,425
2018-04-26T14:13:53.430Z,415
2018-04-26T14:14:06.030Z,410
2018-04-26T14:14:18.599Z,410
2018-04-26T14:14:31.228Z,410
2018-04-26T14:14:43.809Z,410
2018-04-26T14:14:56.407Z,410
2018-04-26T14:15:09.025Z,405
2018-04-26T14:15:21.635Z,400
2018-04-26T14:15:34.229Z,395
2018-04-26T14:15:46.824Z,385
2018-04-26T14:15:59.442Z,385
2018-04-26T14:16:12.037Z,390
2018-04-26T14:16:24.627Z,395
2018-04-26T14:16:37.225Z,400
2018-04-26T14:16:49.815Z,405
2018-04-26T14:17:02.407Z,415
2018-04-26T14:17:15.002Z,420
2018-04-26T14:17:27.616Z,425
2018-04-26T14:17:40.188Z,430
2018-04-26T14:17:52.789Z,440
2018-04-26T14:18:05.423Z,445
2018-04-26T14:18:18.019Z,450
2018-04-26T14:18:30.616Z,445
2018-04-26T14:18:43.287Z,445
2018-04-26T14:18:56.310Z,440
2018-04-26T14:19:09.027Z,435
2018-04-26T14:19:21.648Z,430
2018-04-26T14:19:34.266Z,425
2018-04-26T14:19:46.882Z,420
2018-04-26T14:19:59.538Z,415
2018-04-26T14:20:12.068Z,405
2018-04-26T14:20:24.661Z,400
2018-04-26T14:20:37.262Z,400
2018-04-26T14:20:49.876Z,400
2018-04-26T14:21:02.468Z,405
2018-04-26T14:21:15.085Z,415
2018-04-26T14:21:27.677Z,420
2018-04-26T14:21:40.268Z,425
2018-04-26T14:21:52.869Z,430
2018-04-26T14:22:05.486Z,435
2018-04-26T14:22:18.075Z,440
2018-04-26T14:22:30.649Z,445
2018-04-26T14:22:43.244Z,450
2018-04-26T14:22:55.910Z,460
2018-04-26T14:23:08.515Z,465
2018-04-26T14:23:21.068Z,470
2018-04-26T14:23:33.617Z,475
2018-04-26T14:23:46.237Z,480
2018-04-26T14:23:58.859Z,480
2018-04-26T14:24:11.451Z,480
2018-04-26T14:24:24.043Z,480
2018-04-26T14:24:36.638Z,475
2018-04-26T14:24:49.235Z,475
2018-04-26T14:25:01.856Z,475
2018-04-26T14:25:14.450Z,475
2018-04-26T14:25:27.116Z,475
2018-04-26T14:25:39.715Z,475
2018-04-26T14:25:52.308Z,475
2018-04-26T14:26:04.902Z,475
2018-04-26T14:26:17.521Z,470
2018-04-26T14:26:30.137Z,465
2018-04-26T14:26:42.733Z,465
2018-04-26T14:26:55.329Z,450
2018-04-26T14:27:07.935Z,440
2018-04-26T14:27:20.520Z,435
2018-04-26T14:27:33.113Z,425
2018-04-26T14:27:45.706Z,420
2018-04-26T14:27:58.349Z,420
2018-04-26T14:28:10.941Z,420
2018-04-26T14:28:23.540Z,425
2018-04-26T14:28:36.161Z,425
2018-04-26T14:28:48.755Z,430
2018-04-26T14:29:01.375Z,435
2018-04-26T14:29:14.018Z,435
2018-04-26T14:29:26.729Z,440
2018-04-26T14:29:39.367Z,440
2018-04-26T14:29:51.810Z,440
2018-04-26T14:30:04.425Z,440
2018-04-26T14:30:17.027Z,440
2018-04-26T14:30:29.640Z,445
2018-04-26T14:30:42.260Z,435
2018-04-26T14:30:54.877Z,435
2018-04-26T14:31:07.480Z,435
2018-04-26T14:31:20.072Z,435
2018-04-26T14:31:32.698Z,425
2018-04-26T14:31:45.365Z,425
2018-04-26T14:31:58.304Z,420
2018-04-26T14:32:11.038Z,415
2018-04-26T14:32:23.842Z,415
2018-04-26T14:32:36.637Z,410
2018-04-26T14:32:49.873Z,405
2018-04-26T14:33:02.583Z,400
2018-04-26T14:33:15.535Z,390
2018-04-26T14:33:28.282Z,385
2018-04-26T14:33:41.196Z,380
2018-04-26T14:33:54.235Z,375
2018-04-26T14:34:06.995Z,370
2018-04-26T14:34:19.616Z,365
2018-04-26T14:34:32.236Z,360
2018-04-26T14:34:44.832Z,355
2018-04-26T14:34:57.426Z,350
2018-04-26T14:35:10.044Z,345
2018-04-26T14:35:22.658Z,340
2018-04-26T14:35:35.259Z,340
2018-04-26T14:35:47.856Z,340
2018-04-26T14:36:00.443Z,335
2018-04-26T14:36:13.039Z,330
2018-04-26T14:36:25.631Z,330
2018-04-26T14:36:38.280Z,325
2018-04-26T14:36:50.911Z,320
2018-04-26T14:37:03.534Z,315
2018-04-26T14:37:16.222Z,315
2018-04-26T14:37:28.770Z,310
2018-04-26T14:37:41.349Z,305
2018-04-26T14:37:53.890Z,300
2018-04-26T14:38:06.483Z,300
2018-04-26T14:38:19.100Z,300
2018-04-26T14:38:31.714Z,290
2018-04-26T14:38:44.359Z,290
2018-04-26T14:38:56.954Z,290
2018-04-26T14:39:09.573Z,285
2018-04-26T14:39:22.188Z,285
2018-04-26T14:39:34.785Z,280
2018-04-26T14:39:47.421Z,275
2018-04-26T14:40:00.023Z,275
2018-04-26T14:40:12.613Z,270
2018-04-26T14:40:25.203Z,270
2018-04-26T14:40:37.822Z,265
2018-04-26T14:40:50.440Z,265
2018-04-26T14:41:03.032Z,260
2018-04-26T14:41:15.625Z,260
2018-04-26T14:41:28.218Z,255
2018-04-26T14:41:40.812Z,255
2018-04-26T14:41:53.433Z,255
2018-04-26T14:42:06.024Z,250
2018-04-26T14:42:18.602Z,250
2018-04-26T14:42:31.237Z,245
2018-04-26T14:42:43.804Z,245
2018-04-26T14:42:56.398Z,245
2018-04-26T14:43:09.110Z,250
2018-04-26T14:43:21.712Z,245
2018-04-26T14:43:34.222Z,245
2018-04-26T14:43:46.811Z,245
2018-04-26T14:43:59.406Z,245
2018-04-26T14:44:12.001Z,240
2018-04-26T14:44:24.598Z,240
2018-04-26T14:44:37.213Z,240
2018-04-26T14:44:49.826Z,240
2018-04-26T14:45:02.424Z,240
2018-04-26T14:45:15.017Z,240
2018-04-26T14:45:27.612Z,235
2018-04-26T14:45:40.204Z,235
2018-04-26T14:45:52.798Z,235
2018-04-26T14:46:05.392Z,235
2018-04-26T14:46:17.988Z,235
2018-04-26T14:46:30.585Z,235
2018-04-26T14:46:43.247Z,235
2018-04-26T14:46:55.862Z,235
2018-04-26T14:47:08.530Z,235
2018-04-26T14:47:21.115Z,235
2018-04-26T14:47:33.714Z,235
2018-04-26T14:47:46.303Z,230
2018-04-26T14:47:58.949Z,230
2018-04-26T14:48:11.543Z,230
2018-04-26T14:48:24.161Z,230
2018-04-26T14:48:36.754Z,230
2018-04-26T14:48:49.343Z,230
2018-04-26T14:49:01.937Z,230
2018-04-26T14:49:14.530Z,230
2018-04-26T14:49:27.116Z,230
2018-04-26T14:49:39.725Z,230
2018-04-26T14:49:52.327Z,230
2018-04-26T14:50:04.916Z,230
2018-04-26T14:50:17.530Z,230
2018-04-26T14:50:30.124Z,230
2018-04-26T14:50:42.737Z,230
2018-04-26T14:50:55.323Z,230
2018-04-26T14:51:07.921Z,230
2018-04-26T14:51:20.538Z,230
2018-04-26T14:51:33.150Z,230
2018-04-26T14:51:45.750Z,235
2018-04-26T14:51:58.393Z,235
2018-04-26T14:52:11.034Z,235
2018-04-26T14:52:23.627Z,235
2018-04-26T14:52:36.226Z,235
2018-04-26T14:52:48.825Z,235
2018-04-26T14:53:01.416Z,240
2018-04-26T14:53:14.011Z,240
2018-04-26T14:53:26.605Z,240
2018-04-26T14:53:39.224Z,240
2018-04-26T14:53:51.818Z,240
2018-04-26T14:54:04.409Z,245
2018-04-26T14:54:17.023Z,245
2018-04-26T14:54:29.597Z,245
2018-04-26T14:54:42.201Z,245
2018-04-26T14:54:54.812Z,245
2018-04-26T14:55:07.405Z,245
2018-04-26T14:55:20.001Z,250
2018-04-26T14:55:32.597Z,250
2018-04-26T14:55:45.188Z,250
2018-04-26T14:55:57.801Z,250
2018-04-26T14:56:10.397Z,250
2018-04-26T14:56:23.034Z,250
2018-04-26T14:56:35.585Z,245
2018-04-26T14:56:48.172Z,245
2018-04-26T14:57:00.821Z,245
2018-04-26T14:57:13.366Z,245
2018-04-26T14:57:25.988Z,245
2018-04-26T14:57:38.603Z,245
2018-04-26T14:57:51.190Z,245
2018-04-26T14:58:03.793Z,245
2018-04-26T14:58:16.377Z,240
2018-04-26T14:58:28.975Z,240
2018-04-26T14:58:41.563Z,240
2018-04-26T14:58:54.155Z,240
2018-04-26T14:59:06.751Z,245
2018-04-26T14:59:19.347Z,245
2018-04-26T14:59:31.962Z,245
2018-04-26T14:59:44.558Z,245
2018-04-26T14:59:57.149Z,245
2018-04-26T15:00:09.742Z,245
2018-04-26T15:00:22.375Z,250
2018-04-26T15:00:34.970Z,250
2018-04-26T15:00:47.564Z,250
2018-04-26T15:01:00.241Z,250
2018-04-26T15:01:12.858Z,250
2018-04-26T15:01:25.445Z,250
2018-04-26T15:01:38.043Z,250
2018-04-26T15:01:50.635Z,250
2018-04-26T15:02:03.228Z,250
2018-04-26T15:02:15.818Z,250
2018-04-26T15:02:28.416Z,250
2018-04-26T15:02:41.026Z,250
2018-04-26T15:02:53.624Z,255
2018-04-26T15:03:06.240Z,255
2018-04-26T15:03:18.831Z,260
2018-04-26T15:03:31.423Z,255
2018-04-26T15:03:44.040Z,250
2018-04-26T15:03:56.631Z,250
2018-04-26T15:04:09.299Z,250
2018-04-26T15:04:21.912Z,255
2018-04-26T15:04:34.504Z,255
2018-04-26T15:04:47.080Z,250
2018-04-26T15:04:59.690Z,250
2018-04-26T15:05:12.270Z,250
2018-04-26T15:05:24.882Z,255
2018-04-26T15:05:37.463Z,255
2018-04-26T15:05:50.052Z,260
2018-04-26T15:06:02.646Z,260
2018-04-26T15:06:15.277Z,265
2018-04-26T15:06:27.825Z,265
2018-04-26T15:06:40.423Z,270
2018-04-26T15:06:53.033Z,270
2018-04-26T15:07:05.626Z,275
2018-04-26T15:07:18.222Z,275
2018-04-26T15:07:30.816Z,280
2018-04-26T15:07:43.433Z,275
2018-04-26T15:07:56.047Z,275
2018-04-26T15:08:08.648Z,275
2018-04-26T15:08:21.238Z,275
2018-04-26T15:08:33.831Z,280
2018-04-26T15:08:46.434Z,290
2018-04-26T15:08:59.044Z,285
2018-04-26T15:09:11.665Z,290
2018-04-26T15:09:24.253Z,295
2018-04-26T15:09:36.849Z,300
2018-04-26T15:09:49.462Z,305
2018-04-26T15:10:02.079Z,305
2018-04-26T15:10:14.672Z,305
2018-04-26T15:10:27.266Z,305
2018-04-26T15:10:39.857Z,300
2018-04-26T15:10:52.455Z,300
2018-04-26T15:11:05.073Z,295
2018-04-26T15:11:17.660Z,295
2018-04-26T15:11:30.258Z,295
2018-04-26T15:11:42.912Z,290
2018-04-26T15:11:55.484Z,290
2018-04-26T15:12:08.097Z,295
2018-04-26T15:12:20.691Z,290
2018-04-26T15:12:33.284Z,290
2018-04-26T15:12:45.877Z,295
2018-04-26T15:12:58.470Z,300
2018-04-26T15:13:11.071Z,305
2018-04-26T15:13:23.680Z,315
2018-04-26T15:13:36.272Z,325
2018-04-26T15:13:48.870Z,345
2018-04-26T15:14:01.457Z,360
2018-04-26T15:14:14.050Z,385
2018-04-26T15:14:26.643Z,405
2018-04-26T15:14:39.233Z,425
2018-04-26T15:14:51.828Z,450
2018-04-26T15:15:04.421Z,460
2018-04-26T15:15:17.030Z,470
2018-04-26T15:15:29.687Z,465
2018-04-26T15:15:42.202Z,460
2018-04-26T15:15:54.798Z,435
2018-04-26T15:16:07.413Z,420
2018-04-26T15:16:20.032Z,405
2018-04-26T15:16:32.628Z,385
2018-04-26T15:16:45.215Z,375
2018-04-26T15:16:57.814Z,355
2018-04-26T15:17:10.432Z,350
2018-04-26T15:17:23.023Z,345
2018-04-26T15:17:35.618Z,335
2018-04-26T15:17:48.223Z,325
2018-04-26T15:18:00.887Z,325
2018-04-26T15:18:13.423Z,315
2018-04-26T15:18:26.017Z,315
2018-04-26T15:18:38.635Z,310
2018-04-26T15:18:51.238Z,310
2018-04-26T15:19:03.833Z,310
2018-04-26T15:19:16.431Z,315
2018-04-26T15:19:29.022Z,320
2018-04-26T15:19:41.615Z,325
2018-04-26T15:19:54.212Z,325
2018-04-26T15:20:06.805Z,330
2018-04-26T15:20:19.419Z,335
2018-04-26T15:20:32.011Z,335
2018-04-26T15:20:44.603Z,335
2018-04-26T15:20:57.197Z,335
2018-04-26T15:21:09.793Z,335
2018-04-26T15:21:22.408Z,335
2018-04-26T15:21:35.028Z,330
2018-04-26T15:21:47.669Z,325
2018-04-26T15:22:00.213Z,320
2018-04-26T15:22:12.809Z,310
2018-04-26T15:22:25.406Z,310
2018-04-26T15:22:37.995Z,300
2018-04-26T15:22:50.586Z,295
2018-04-26T15:23:03.183Z,290
2018-04-26T15:23:15.775Z,285
2018-04-26T15:23:28.367Z,285
2018-04-26T15:23:40.965Z,285
2018-04-26T15:23:53.582Z,290
2018-04-26T15:24:06.200Z,295
2018-04-26T15:24:18.811Z,295
2018-04-26T15:24:31.403Z,300
2018-04-26T15:24:43.996Z,300
2018-04-26T15:24:56.597Z,305
2018-04-26T15:25:09.206Z,305
2018-04-26T15:25:21.801Z,305
2018-04-26T15:25:34.451Z,305
2018-04-26T15:25:47.048Z,305
2018-04-26T15:25:59.642Z,305
2018-04-26T15:26:12.236Z,305
2018-04-26T15:26:24.846Z,310
2018-04-26T15:26:37.446Z,305
2018-04-26T15:26:50.067Z,305
2018-04-26T15:27:02.692Z,305
2018-04-26T15:27:15.310Z,305
2018-04-26T15:27:27.923Z,305
2018-04-26T15:27:40.517Z,300
2018-04-26T15:27:53.117Z,300
2018-04-26T15:28:05.723Z,295
2018-04-26T15:28:18.327Z,295
2018-04-26T15:28:30.996Z,295
2018-04-26T15:28:43.587Z,300
2018-04-26T15:28:56.182Z,300
2018-04-26T15:29:08.780Z,305
2018-04-26T15:29:21.397Z,310
2018-04-26T15:29:34.015Z,315
2018-04-26T15:29:46.591Z,320
2018-04-26T15:29:59.192Z,325
2018-04-26T15:30:11.810Z,330
2018-04-26T15:30:24.423Z,325
2018-04-26T15:30:37.020Z,325
2018-04-26T15:30:49.634Z,320
2018-04-26T15:31:02.229Z,320
2018-04-26T15:31:14.824Z,325
2018-04-26T15:31:27.410Z,325
2018-04-26T15:31:40.012Z,325
2018-04-26T15:31:52.627Z,330
2018-04-26T15:32:05.192Z,335
2018-04-26T15:32:17.787Z,340
2018-04-26T15:32:30.380Z,345
2018-04-26T15:32:42.992Z,350
2018-04-26T15:32:55.589Z,345
2018-04-26T15:33:08.182Z,345
2018-04-26T15:33:20.798Z,335
2018-04-26T15:33:33.387Z,325
2018-04-26T15:33:46.032Z,310
2018-04-26T15:33:58.627Z,305
2018-04-26T15:34:11.242Z,295
2018-04-26T15:34:23.833Z,290
2018-04-26T15:34:36.429Z,290
2018-04-26T15:34:49.041Z,290
2018-04-26T15:35:01.642Z,290
2018-04-26T15:35:14.254Z,295
2018-04-26T15:35:26.867Z,300
2018-04-26T15:35:39.499Z,305
2018-04-26T15:35:52.078Z,305
2018-04-26T15:36:04.673Z,305
2018-04-26T15:36:17.268Z,305
2018-04-26T15:36:29.862Z,300
2018-04-26T15:36:42.479Z,300
2018-04-26T15:36:55.072Z,290
2018-04-26T15:37:07.661Z,290
2018-04-26T15:37:20.259Z,285
2018-04-26T15:37:32.878Z,280
2018-04-26T15:37:45.508Z,275
2018-04-26T15:37:58.085Z,275
2018-04-26T15:38:10.681Z,275
2018-04-26T15:38:23.279Z,280
2018-04-26T15:38:35.862Z,275
2018-04-26T15:38:48.466Z,275
2018-04-26T15:39:01.074Z,270
2018-04-26T15:39:13.672Z,270
2018-04-26T15:39:26.290Z,265
2018-04-26T15:39:39.103Z,260
2018-04-26T15:39:51.695Z,255
2018-04-26T15:40:04.289Z,250
2018-04-26T15:40:16.890Z,245
2018-04-26T15:40:29.478Z,240
2018-04-26T15:40:42.080Z,240
2018-04-26T15:40:54.692Z,240
2018-04-26T15:41:07.283Z,240
2018-04-26T15:41:19.876Z,245
2018-04-26T15:41:32.467Z,250
2018-04-26T15:41:45.059Z,255
2018-04-26T15:41:57.672Z,265
2018-04-26T15:42:10.264Z,270
2018-04-26T15:42:22.860Z,275
2018-04-26T15:42:35.475Z,275
2018-04-26T15:42:48.095Z,280
2018-04-26T15:43:00.708Z,290
2018-04-26T15:43:13.355Z,295
2018-04-26T15:43:25.948Z,305
2018-04-26T15:43:38.546Z,315
2018-04-26T15:43:51.136Z,325
2018-04-26T15:44:03.745Z,340
2018-04-26T15:44:16.396Z,350
2018-04-26T15:44:29.005Z,350
2018-04-26T15:44:41.737Z,350
2018-04-26T15:44:54.771Z,345
2018-04-26T15:45:07.378Z,345
2018-04-26T15:45:19.975Z,340
2018-04-26T15:45:32.588Z,330
2018-04-26T15:45:45.203Z,320
2018-04-26T15:45:57.802Z,315
2018-04-26T15:46:10.396Z,310
2018-04-26T15:46:23.017Z,300
2018-04-26T15:46:35.627Z,300
2018-04-26T15:46:48.220Z,295
2018-04-26T15:47:00.819Z,290
2018-04-26T15:47:13.440Z,280
2018-04-26T15:47:26.053Z,280
2018-04-26T15:47:38.646Z,275
2018-04-26T15:47:51.255Z,270
2018-04-26T15:48:03.864Z,270
2018-04-26T15:48:16.441Z,275
2018-04-26T15:48:29.039Z,285
2018-04-26T15:48:41.626Z,285
2018-04-26T15:48:54.220Z,295
2018-04-26T15:49:06.810Z,300
2018-04-26T15:49:19.405Z,315
2018-04-26T15:49:31.999Z,325
2018-04-26T15:49:44.606Z,340
2018-04-26T15:49:57.267Z,355
2018-04-26T15:50:09.846Z,370
2018-04-26T15:50:22.388Z,380
2018-04-26T15:50:35.003Z,385
2018-04-26T15:50:47.619Z,380
2018-04-26T15:51:00.214Z,375
2018-04-26T15:51:12.809Z,360
2018-04-26T15:51:25.479Z,350
2018-04-26T15:51:37.991Z,335
2018-04-26T15:51:50.585Z,325
2018-04-26T15:52:03.183Z,320
2018-04-26T15:52:15.800Z,315
2018-04-26T15:52:28.418Z,315
2018-04-26T15:52:41.011Z,315
2018-04-26T15:52:53.629Z,315
2018-04-26T15:53:06.247Z,305
2018-04-26T15:53:18.916Z,305
2018-04-26T15:53:31.510Z,300
2018-04-26T15:53:44.104Z,305
2018-04-26T15:53:56.722Z,310
2018-04-26T15:54:09.335Z,310
2018-04-26T15:54:21.926Z,315
2018-04-26T15:54:34.523Z,310
2018-04-26T15:54:47.105Z,315
2018-04-26T15:54:59.709Z,325
2018-04-26T15:55:12.323Z,330
2018-04-26T15:55:24.917Z,340
2018-04-26T15:55:37.532Z,345
2018-04-26T15:55:50.119Z,350
2018-04-26T15:56:02.712Z,350
2018-04-26T15:56:15.312Z,350
2018-04-26T15:56:27.928Z,350
2018-04-26T15:56:40.542Z,345
2018-04-26T15:56:53.135Z,340
2018-04-26T15:57:05.733Z,335
2018-04-26T15:57:18.395Z,335
2018-04-26T15:57:30.995Z,325
2018-04-26T15:57:43.590Z,325
2018-04-26T15:57:56.203Z,320
2018-04-26T15:58:08.798Z,315
2018-04-26T15:58:21.434Z,305
2018-04-26T15:58:34.021Z,300
2018-04-26T15:58:46.592Z,295
2018-04-26T15:58:59.187Z,295
2018-04-26T15:59:11.782Z,295
2018-04-26T15:59:24.397Z,290
2018-04-26T15:59:36.989Z,290
2018-04-26T15:59:49.605Z,285
2018-04-26T16:00:02.221Z,280
2018-04-26T16:00:14.812Z,275
2018-04-26T16:00:27.411Z,265
2018-04-26T16:00:40.029Z,265
2018-04-26T16:00:52.647Z,260
2018-04-26T16:01:05.266Z,255
2018-04-26T16:01:17.861Z,260
2018-04-26T16:01:30.469Z,260
2018-04-26T16:01:43.104Z,260
2018-04-26T16:01:55.636Z,260
2018-04-26T16:02:08.230Z,260
2018-04-26T16:02:20.847Z,260
2018-04-26T16:02:33.467Z,265
2018-04-26T16:02:46.065Z,270
2018-04-26T16:02:58.678Z,270
2018-04-26T16:03:11.275Z,275
2018-04-26T16:03:23.867Z,280
2018-04-26T16:03:36.461Z,280
2018-04-26T16:03:49.059Z,285
2018-04-26T16:04:01.650Z,285
2018-04-26T16:04:14.265Z,290
2018-04-26T16:04:26.909Z,290
2018-04-26T16:04:39.500Z,290
2018-04-26T16:04:52.136Z,290
2018-04-26T16:05:04.684Z,290
2018-04-26T16:05:17.280Z,290
2018-04-26T16:05:29.897Z,280
2018-04-26T16:05:42.515Z,280
2018-04-26T16:05:55.100Z,275
2018-04-26T16:06:07.703Z,280
2018-04-26T16:06:20.321Z,280
2018-04-26T16:06:32.911Z,280
2018-04-26T16:06:45.503Z,275
2018-04-26T16:06:58.140Z,275
2018-04-26T16:07:10.738Z,270
2018-04-26T16:07:23.330Z,270
2018-04-26T16:07:35.924Z,270
2018-04-26T16:07:48.518Z,265
2018-04-26T16:08:01.138Z,265
2018-04-26T16:08:13.753Z,260
2018-04-26T16:08:26.341Z,260
2018-04-26T16:08:38.935Z,260
2018-04-26T16:08:51.525Z,260
2018-04-26T16:09:04.128Z,265
2018-04-26T16:09:16.730Z,265
2018-04-26T16:09:29.385Z,265
2018-04-26T16:09:41.900Z,265
2018-04-26T16:09:54.493Z,265
2018-04-26T16:10:07.079Z,265
2018-04-26T16:10:19.703Z,260
2018-04-26T16:10:32.350Z,260
2018-04-26T16:10:44.936Z,260
2018-04-26T16:10:57.534Z,260
2018-04-26T16:11:10.131Z,255
2018-04-26T16:11:22.726Z,255
2018-04-26T16:11:35.317Z,255
2018-04-26T16:11:47.908Z,255
2018-04-26T16:12:00.507Z,255
2018-04-26T16:12:13.119Z,255
2018-04-26T16:12:25.711Z,255
2018-04-26T16:12:38.307Z,260
2018-04-26T16:12:50.900Z,265
2018-04-26T16:13:03.516Z,270
2018-04-26T16:13:16.133Z,275
2018-04-26T16:13:28.731Z,280
2018-04-26T16:13:41.345Z,290
2018-04-26T16:13:53.961Z,295
2018-04-26T16:14:06.576Z,295
2018-04-26T16:14:19.167Z,295
2018-04-26T16:14:31.757Z,305
2018-04-26T16:14:44.349Z,295
2018-04-26T16:14:56.940Z,290
2018-04-26T16:15:09.536Z,290
2018-04-26T16:15:22.131Z,285
2018-04-26T16:15:34.748Z,275
2018-04-26T16:15:47.418Z,275
2018-04-26T16:15:59.988Z,270
2018-04-26T16:16:12.600Z,265
2018-04-26T16:16:25.195Z,260
2018-04-26T16:16:37.792Z,255
2018-04-26T16:16:50.482Z,255
2018-04-26T16:17:03.019Z,255
2018-04-26T16:17:15.591Z,255
2018-04-26T16:17:28.186Z,255
2018-04-26T16:17:40.785Z,250
2018-04-26T16:17:53.371Z,250
2018-04-26T16:18:05.963Z,250
2018-04-26T16:18:18.555Z,245
2018-04-26T16:18:31.145Z,245
2018-04-26T16:18:43.737Z,245
2018-04-26T16:18:56.333Z,245
2018-04-26T16:19:08.932Z,245
2018-04-26T16:19:21.537Z,240
2018-04-26T16:19:34.152Z,245
2018-04-26T16:19:46.745Z,240
2018-04-26T16:19:59.375Z,235
2018-04-26T16:20:11.984Z,240